sensor_id;sensor_type;location;lat;lon;timestamp;P1;durP1;ratioP1;P2;durP2;ratioP2
25780;SDS011;13626;48.128;11.628;2022-12-07T00:01:07;14.65;;;8.43;;
25780;SDS011;13626;48.128;11.628;2022-12-07T00:03:35;15.23;;;9.32;;
25780;SDS011;13626;48.128;11.628;2022-12-07T00:06:03;13.52;;;9.23;;
25780;SDS011;13626;48.128;11.628;2022-12-07T00:08:31;15.60;;;9.10;;
25780;SDS011;13626;48.128;11.628;2022-12-07T00:11:05;17.45;;;8.77;;
25780;SDS011;13626;48.128;11.628;2022-12-07T00:16:04;15.02;;;8.80;;
25780;SDS011;13626;48.128;11.628;2022-12-07T00:18:32;14.77;;;9.55;;
25780;SDS011;13626;48.128;11.628;2022-12-07T00:21:05;14.90;;;8.98;;
25780;SDS011;13626;48.128;11.628;2022-12-07T00:23:33;12.60;;;7.80;;
25780;SDS011;13626;48.128;11.628;2022-12-07T00:26:19;12.52;;;8.27;;
25780;SDS011;13626;48.128;11.628;2022-12-07T00:28:47;12.20;;;8.40;;
25780;SDS011;13626;48.128;11.628;2022-12-07T00:31:14;11.10;;;7.65;;
25780;SDS011;13626;48.128;11.628;2022-12-07T00:33:42;11.70;;;7.53;;
25780;SDS011;13626;48.128;11.628;2022-12-07T00:36:10;11.48;;;7.50;;
25780;SDS011;13626;48.128;11.628;2022-12-07T00:38:38;12.25;;;7.55;;
25780;SDS011;13626;48.128;11.628;2022-12-07T00:41:07;10.80;;;7.75;;
25780;SDS011;13626;48.128;11.628;2022-12-07T00:43:36;12.00;;;7.18;;
25780;SDS011;13626;48.128;11.628;2022-12-07T00:46:03;11.68;;;7.40;;
25780;SDS011;13626;48.128;11.628;2022-12-07T00:48:30;14.93;;;8.18;;
25780;SDS011;13626;48.128;11.628;2022-12-07T00:50:58;12.02;;;7.88;;
25780;SDS011;13626;48.128;11.628;2022-12-07T00:53:26;12.25;;;8.02;;
25780;SDS011;13626;48.128;11.628;2022-12-07T00:55:53;11.32;;;7.50;;
25780;SDS011;13626;48.128;11.628;2022-12-07T00:58:22;14.10;;;7.15;;
25780;SDS011;13626;48.128;11.628;2022-12-07T01:00:50;11.77;;;7.97;;
25780;SDS011;13626;48.128;11.628;2022-12-07T01:03:17;11.27;;;7.57;;
25780;SDS011;13626;48.128;11.628;2022-12-07T01:05:51;10.38;;;7.22;;
25780;SDS011;13626;48.128;11.628;2022-12-07T01:08:19;11.50;;;7.65;;
25780;SDS011;13626;48.128;11.628;2022-12-07T01:10:46;12.77;;;8.10;;
25780;SDS011;13626;48.128;11.628;2022-12-07T01:13:14;10.25;;;7.25;;
25780;SDS011;13626;48.128;11.628;2022-12-07T01:15:41;13.40;;;7.47;;
25780;SDS011;13626;48.128;11.628;2022-12-07T01:18:09;11.73;;;7.43;;
25780;SDS011;13626;48.128;11.628;2022-12-07T01:20:36;9.77;;;6.82;;
25780;SDS011;13626;48.128;11.628;2022-12-07T01:23:04;10.43;;;7.00;;
25780;SDS011;13626;48.128;11.628;2022-12-07T01:25:31;11.02;;;7.45;;
25780;SDS011;13626;48.128;11.628;2022-12-07T01:27:58;10.68;;;7.22;;
25780;SDS011;13626;48.128;11.628;2022-12-07T01:30:25;11.45;;;7.15;;
25780;SDS011;13626;48.128;11.628;2022-12-07T01:32:52;9.93;;;7.00;;
25780;SDS011;13626;48.128;11.628;2022-12-07T01:35:19;12.65;;;7.20;;
25780;SDS011;13626;48.128;11.628;2022-12-07T01:37:47;10.43;;;7.15;;
25780;SDS011;13626;48.128;11.628;2022-12-07T01:40:14;9.90;;;6.72;;
25780;SDS011;13626;48.128;11.628;2022-12-07T01:42:41;10.30;;;7.03;;
25780;SDS011;13626;48.128;11.628;2022-12-07T01:47:46;9.50;;;6.93;;
25780;SDS011;13626;48.128;11.628;2022-12-07T01:50:14;10.82;;;6.72;;
25780;SDS011;13626;48.128;11.628;2022-12-07T01:52:41;10.18;;;7.03;;
25780;SDS011;13626;48.128;11.628;2022-12-07T01:55:10;12.40;;;6.95;;
25780;SDS011;13626;48.128;11.628;2022-12-07T01:57:41;10.85;;;7.13;;
25780;SDS011;13626;48.128;11.628;2022-12-07T02:00:09;10.85;;;6.68;;
25780;SDS011;13626;48.128;11.628;2022-12-07T02:02:38;10.20;;;7.10;;
25780;SDS011;13626;48.128;11.628;2022-12-07T02:05:06;9.52;;;6.43;;
25780;SDS011;13626;48.128;11.628;2022-12-07T02:07:34;9.90;;;6.57;;
25780;SDS011;13626;48.128;11.628;2022-12-07T02:10:16;9.75;;;6.68;;
25780;SDS011;13626;48.128;11.628;2022-12-07T02:12:44;9.73;;;6.93;;
25780;SDS011;13626;48.128;11.628;2022-12-07T02:15:13;11.18;;;7.40;;
25780;SDS011;13626;48.128;11.628;2022-12-07T02:30:51;11.43;;;6.90;;
25780;SDS011;13626;48.128;11.628;2022-12-07T02:33:21;10.93;;;7.43;;
25780;SDS011;13626;48.128;11.628;2022-12-07T02:40:55;10.10;;;7.43;;
25780;SDS011;13626;48.128;11.628;2022-12-07T02:43:28;11.60;;;7.72;;
25780;SDS011;13626;48.128;11.628;2022-12-07T02:46:02;12.20;;;8.00;;
25780;SDS011;13626;48.128;11.628;2022-12-07T02:48:31;10.35;;;7.38;;
25780;SDS011;13626;48.128;11.628;2022-12-07T02:50:59;10.52;;;7.00;;
25780;SDS011;13626;48.128;11.628;2022-12-07T02:53:33;12.00;;;7.90;;
25780;SDS011;13626;48.128;11.628;2022-12-07T03:01:10;11.05;;;7.18;;
25780;SDS011;13626;48.128;11.628;2022-12-07T03:03:39;11.45;;;7.47;;
25780;SDS011;13626;48.128;11.628;2022-12-07T03:11:12;10.60;;;7.03;;
25780;SDS011;13626;48.128;11.628;2022-12-07T03:16:31;9.88;;;7.20;;
25780;SDS011;13626;48.128;11.628;2022-12-07T03:19:02;11.27;;;7.30;;
25780;SDS011;13626;48.128;11.628;2022-12-07T03:21:39;10.93;;;7.22;;
25780;SDS011;13626;48.128;11.628;2022-12-07T03:24:09;9.38;;;6.43;;
25780;SDS011;13626;48.128;11.628;2022-12-07T03:26:41;11.52;;;7.47;;
25780;SDS011;13626;48.128;11.628;2022-12-07T03:29:29;11.63;;;7.68;;
25780;SDS011;13626;48.128;11.628;2022-12-07T03:32:08;11.50;;;7.82;;
25780;SDS011;13626;48.128;11.628;2022-12-07T03:34:42;10.43;;;7.45;;
25780;SDS011;13626;48.128;11.628;2022-12-07T03:37:21;11.02;;;7.63;;
25780;SDS011;13626;48.128;11.628;2022-12-07T03:42:35;11.00;;;7.38;;
25780;SDS011;13626;48.128;11.628;2022-12-07T03:45:03;9.35;;;6.55;;
25780;SDS011;13626;48.128;11.628;2022-12-07T03:47:53;14.18;;;7.68;;
25780;SDS011;13626;48.128;11.628;2022-12-07T03:50:22;12.60;;;7.63;;
25780;SDS011;13626;48.128;11.628;2022-12-07T03:52:53;14.00;;;8.55;;
25780;SDS011;13626;48.128;11.628;2022-12-07T03:55:25;13.10;;;8.30;;
25780;SDS011;13626;48.128;11.628;2022-12-07T03:57:55;12.52;;;8.25;;
25780;SDS011;13626;48.128;11.628;2022-12-07T04:00:23;12.57;;;8.38;;
25780;SDS011;13626;48.128;11.628;2022-12-07T04:02:51;14.68;;;9.38;;
25780;SDS011;13626;48.128;11.628;2022-12-07T04:05:18;11.88;;;8.20;;
25780;SDS011;13626;48.128;11.628;2022-12-07T04:07:46;14.32;;;8.75;;
25780;SDS011;13626;48.128;11.628;2022-12-07T04:10:13;12.98;;;9.02;;
25780;SDS011;13626;48.128;11.628;2022-12-07T04:12:40;13.50;;;8.38;;
25780;SDS011;13626;48.128;11.628;2022-12-07T04:15:07;13.48;;;8.48;;
25780;SDS011;13626;48.128;11.628;2022-12-07T04:17:35;13.82;;;8.70;;
25780;SDS011;13626;48.128;11.628;2022-12-07T04:20:02;14.60;;;9.27;;
25780;SDS011;13626;48.128;11.628;2022-12-07T04:22:30;12.93;;;8.75;;
25780;SDS011;13626;48.128;11.628;2022-12-07T04:24:57;13.10;;;8.55;;
25780;SDS011;13626;48.128;11.628;2022-12-07T04:27:24;13.38;;;8.70;;
25780;SDS011;13626;48.128;11.628;2022-12-07T04:29:52;13.65;;;9.23;;
25780;SDS011;13626;48.128;11.628;2022-12-07T04:32:19;13.73;;;9.00;;
25780;SDS011;13626;48.128;11.628;2022-12-07T04:34:46;16.00;;;9.55;;
25780;SDS011;13626;48.128;11.628;2022-12-07T04:37:20;13.63;;;9.13;;
25780;SDS011;13626;48.128;11.628;2022-12-07T04:39:47;13.23;;;8.57;;
25780;SDS011;13626;48.128;11.628;2022-12-07T04:42:14;12.57;;;8.32;;
25780;SDS011;13626;48.128;11.628;2022-12-07T04:44:42;14.88;;;9.70;;
25780;SDS011;13626;48.128;11.628;2022-12-07T04:47:09;13.82;;;8.30;;
25780;SDS011;13626;48.128;11.628;2022-12-07T04:49:36;13.23;;;8.90;;
25780;SDS011;13626;48.128;11.628;2022-12-07T04:52:03;13.27;;;8.88;;
25780;SDS011;13626;48.128;11.628;2022-12-07T04:54:30;14.43;;;9.00;;
25780;SDS011;13626;48.128;11.628;2022-12-07T04:56:57;14.75;;;9.38;;
25780;SDS011;13626;48.128;11.628;2022-12-07T04:59:25;14.57;;;9.63;;
25780;SDS011;13626;48.128;11.628;2022-12-07T05:01:52;13.60;;;9.00;;
25780;SDS011;13626;48.128;11.628;2022-12-07T05:04:19;15.40;;;8.80;;
25780;SDS011;13626;48.128;11.628;2022-12-07T05:06:46;13.75;;;9.05;;
25780;SDS011;13626;48.128;11.628;2022-12-07T05:09:13;11.68;;;8.05;;
25780;SDS011;13626;48.128;11.628;2022-12-07T05:11:40;14.52;;;9.07;;
25780;SDS011;13626;48.128;11.628;2022-12-07T05:14:18;13.85;;;9.05;;
25780;SDS011;13626;48.128;11.628;2022-12-07T05:16:47;15.05;;;8.60;;
25780;SDS011;13626;48.128;11.628;2022-12-07T05:19:15;13.98;;;8.98;;
25780;SDS011;13626;48.128;11.628;2022-12-07T05:21:42;14.15;;;9.00;;
25780;SDS011;13626;48.128;11.628;2022-12-07T05:24:10;13.40;;;8.75;;
25780;SDS011;13626;48.128;11.628;2022-12-07T05:26:37;12.88;;;8.32;;
25780;SDS011;13626;48.128;11.628;2022-12-07T05:29:05;14.10;;;9.13;;
25780;SDS011;13626;48.128;11.628;2022-12-07T05:31:32;13.80;;;8.10;;
25780;SDS011;13626;48.128;11.628;2022-12-07T05:34:00;14.73;;;9.25;;
25780;SDS011;13626;48.128;11.628;2022-12-07T05:36:27;13.02;;;8.50;;
25780;SDS011;13626;48.128;11.628;2022-12-07T05:38:57;13.23;;;8.38;;
25780;SDS011;13626;48.128;11.628;2022-12-07T05:41:25;11.60;;;8.00;;
25780;SDS011;13626;48.128;11.628;2022-12-07T05:44:11;12.32;;;7.68;;
25780;SDS011;13626;48.128;11.628;2022-12-07T05:46:38;12.05;;;7.68;;
25780;SDS011;13626;48.128;11.628;2022-12-07T05:49:05;12.13;;;7.63;;
25780;SDS011;13626;48.128;11.628;2022-12-07T05:51:32;12.80;;;8.55;;
25780;SDS011;13626;48.128;11.628;2022-12-07T05:53:59;13.00;;;8.55;;
25780;SDS011;13626;48.128;11.628;2022-12-07T05:56:27;11.73;;;7.63;;
25780;SDS011;13626;48.128;11.628;2022-12-07T05:58:54;13.05;;;8.63;;
25780;SDS011;13626;48.128;11.628;2022-12-07T06:01:40;11.88;;;8.25;;
25780;SDS011;13626;48.128;11.628;2022-12-07T06:04:07;12.13;;;7.57;;
25780;SDS011;13626;48.128;11.628;2022-12-07T06:06:34;13.30;;;8.55;;
25780;SDS011;13626;48.128;11.628;2022-12-07T06:09:02;11.63;;;8.07;;
25780;SDS011;13626;48.128;11.628;2022-12-07T06:11:29;13.20;;;8.80;;
25780;SDS011;13626;48.128;11.628;2022-12-07T06:14:15;12.80;;;8.38;;
25780;SDS011;13626;48.128;11.628;2022-12-07T06:16:43;14.55;;;8.95;;
25780;SDS011;13626;48.128;11.628;2022-12-07T06:19:10;14.63;;;8.15;;
25780;SDS011;13626;48.128;11.628;2022-12-07T06:21:37;12.63;;;8.25;;
25780;SDS011;13626;48.128;11.628;2022-12-07T06:24:05;12.88;;;8.40;;
25780;SDS011;13626;48.128;11.628;2022-12-07T06:26:32;12.90;;;8.48;;
25780;SDS011;13626;48.128;11.628;2022-12-07T06:28:59;14.63;;;9.50;;
25780;SDS011;13626;48.128;11.628;2022-12-07T06:31:27;13.30;;;8.65;;
25780;SDS011;13626;48.128;11.628;2022-12-07T06:34:00;15.40;;;10.15;;
25780;SDS011;13626;48.128;11.628;2022-12-07T06:36:28;11.63;;;8.15;;
25780;SDS011;13626;48.128;11.628;2022-12-07T06:38:55;13.35;;;8.68;;
25780;SDS011;13626;48.128;11.628;2022-12-07T06:41:22;12.95;;;8.52;;
25780;SDS011;13626;48.128;11.628;2022-12-07T06:43:50;12.40;;;8.90;;
25780;SDS011;13626;48.128;11.628;2022-12-07T06:46:21;13.85;;;9.13;;
25780;SDS011;13626;48.128;11.628;2022-12-07T06:48:49;14.18;;;8.88;;
25780;SDS011;13626;48.128;11.628;2022-12-07T06:51:16;12.55;;;8.45;;
25780;SDS011;13626;48.128;11.628;2022-12-07T06:53:43;13.45;;;9.23;;
25780;SDS011;13626;48.128;11.628;2022-12-07T06:56:10;12.57;;;8.10;;
25780;SDS011;13626;48.128;11.628;2022-12-07T06:58:38;13.00;;;8.48;;
25780;SDS011;13626;48.128;11.628;2022-12-07T07:01:12;14.00;;;9.05;;
25780;SDS011;13626;48.128;11.628;2022-12-07T07:03:40;13.93;;;8.70;;
25780;SDS011;13626;48.128;11.628;2022-12-07T07:06:07;13.23;;;9.32;;
25780;SDS011;13626;48.128;11.628;2022-12-07T07:08:35;12.70;;;8.60;;
25780;SDS011;13626;48.128;11.628;2022-12-07T07:11:03;15.00;;;9.02;;
25780;SDS011;13626;48.128;11.628;2022-12-07T07:13:30;14.63;;;8.88;;
25780;SDS011;13626;48.128;11.628;2022-12-07T07:15:57;13.48;;;8.95;;
25780;SDS011;13626;48.128;11.628;2022-12-07T07:18:25;15.27;;;9.85;;
25780;SDS011;13626;48.128;11.628;2022-12-07T07:20:52;13.70;;;9.05;;
25780;SDS011;13626;48.128;11.628;2022-12-07T07:23:20;12.52;;;8.80;;
25780;SDS011;13626;48.128;11.628;2022-12-07T07:25:47;12.77;;;8.52;;
25780;SDS011;13626;48.128;11.628;2022-12-07T07:28:15;13.88;;;9.13;;
25780;SDS011;13626;48.128;11.628;2022-12-07T07:30:43;12.18;;;8.60;;
25780;SDS011;13626;48.128;11.628;2022-12-07T07:33:10;13.38;;;8.68;;
25780;SDS011;13626;48.128;11.628;2022-12-07T07:35:38;12.05;;;8.02;;
25780;SDS011;13626;48.128;11.628;2022-12-07T07:38:05;16.40;;;9.48;;
25780;SDS011;13626;48.128;11.628;2022-12-07T07:40:33;14.57;;;9.00;;
25780;SDS011;13626;48.128;11.628;2022-12-07T07:43:00;12.25;;;8.35;;
25780;SDS011;13626;48.128;11.628;2022-12-07T07:45:27;12.55;;;8.73;;
25780;SDS011;13626;48.128;11.628;2022-12-07T07:47:54;13.05;;;9.00;;
25780;SDS011;13626;48.128;11.628;2022-12-07T07:50:21;12.32;;;8.77;;
25780;SDS011;13626;48.128;11.628;2022-12-07T07:52:49;15.65;;;8.25;;
25780;SDS011;13626;48.128;11.628;2022-12-07T07:55:16;14.32;;;9.25;;
25780;SDS011;13626;48.128;11.628;2022-12-07T07:57:43;12.85;;;8.70;;
25780;SDS011;13626;48.128;11.628;2022-12-07T08:00:18;13.52;;;8.65;;
25780;SDS011;13626;48.128;11.628;2022-12-07T08:02:45;13.90;;;8.25;;
25780;SDS011;13626;48.128;11.628;2022-12-07T08:05:12;14.65;;;9.23;;
25780;SDS011;13626;48.128;11.628;2022-12-07T08:07:40;14.73;;;8.93;;
25780;SDS011;13626;48.128;11.628;2022-12-07T08:10:09;13.30;;;8.98;;
25780;SDS011;13626;48.128;11.628;2022-12-07T08:12:37;13.30;;;9.13;;
25780;SDS011;13626;48.128;11.628;2022-12-07T08:15:25;15.05;;;9.00;;
25780;SDS011;13626;48.128;11.628;2022-12-07T08:17:52;16.33;;;9.35;;
25780;SDS011;13626;48.128;11.628;2022-12-07T08:20:20;15.85;;;9.40;;
25780;SDS011;13626;48.128;11.628;2022-12-07T08:22:47;15.88;;;9.13;;
25780;SDS011;13626;48.128;11.628;2022-12-07T08:25:14;16.52;;;9.80;;
25780;SDS011;13626;48.128;11.628;2022-12-07T08:27:41;16.23;;;10.00;;
25780;SDS011;13626;48.128;11.628;2022-12-07T08:30:08;15.00;;;9.93;;
25780;SDS011;13626;48.128;11.628;2022-12-07T08:32:35;14.88;;;9.65;;
25780;SDS011;13626;48.128;11.628;2022-12-07T08:35:03;16.02;;;9.57;;
25780;SDS011;13626;48.128;11.628;2022-12-07T08:37:31;14.63;;;9.90;;
25780;SDS011;13626;48.128;11.628;2022-12-07T08:39:58;18.25;;;9.77;;
25780;SDS011;13626;48.128;11.628;2022-12-07T08:42:26;16.00;;;10.25;;
25780;SDS011;13626;48.128;11.628;2022-12-07T08:44:56;15.45;;;9.65;;
25780;SDS011;13626;48.128;11.628;2022-12-07T08:47:24;15.20;;;9.23;;
25780;SDS011;13626;48.128;11.628;2022-12-07T08:49:51;14.25;;;8.93;;
25780;SDS011;13626;48.128;11.628;2022-12-07T08:52:20;15.30;;;9.75;;
25780;SDS011;13626;48.128;11.628;2022-12-07T08:54:47;16.50;;;10.15;;
25780;SDS011;13626;48.128;11.628;2022-12-07T08:57:15;15.02;;;9.68;;
25780;SDS011;13626;48.128;11.628;2022-12-07T08:59:42;17.83;;;10.80;;
25780;SDS011;13626;48.128;11.628;2022-12-07T09:02:09;16.95;;;10.30;;
25780;SDS011;13626;48.128;11.628;2022-12-07T09:04:36;15.48;;;9.73;;
25780;SDS011;13626;48.128;11.628;2022-12-07T09:07:04;16.20;;;9.70;;
25780;SDS011;13626;48.128;11.628;2022-12-07T09:09:31;15.70;;;9.20;;
25780;SDS011;13626;48.128;11.628;2022-12-07T09:11:58;14.48;;;8.68;;
25780;SDS011;13626;48.128;11.628;2022-12-07T09:14:26;14.23;;;8.98;;
25780;SDS011;13626;48.128;11.628;2022-12-07T09:16:53;16.17;;;9.00;;
25780;SDS011;13626;48.128;11.628;2022-12-07T09:19:20;14.90;;;9.27;;
25780;SDS011;13626;48.128;11.628;2022-12-07T09:21:47;14.15;;;8.73;;
25780;SDS011;13626;48.128;11.628;2022-12-07T09:24:14;13.70;;;9.05;;
25780;SDS011;13626;48.128;11.628;2022-12-07T09:26:41;14.35;;;9.18;;
25780;SDS011;13626;48.128;11.628;2022-12-07T09:29:10;14.27;;;9.20;;
25780;SDS011;13626;48.128;11.628;2022-12-07T09:31:37;13.73;;;8.70;;
25780;SDS011;13626;48.128;11.628;2022-12-07T09:34:05;14.27;;;8.77;;
25780;SDS011;13626;48.128;11.628;2022-12-07T09:36:32;11.98;;;8.23;;
25780;SDS011;13626;48.128;11.628;2022-12-07T09:38:59;13.48;;;8.88;;
25780;SDS011;13626;48.128;11.628;2022-12-07T09:41:27;13.70;;;8.65;;
25780;SDS011;13626;48.128;11.628;2022-12-07T09:44:04;13.27;;;9.23;;
25780;SDS011;13626;48.128;11.628;2022-12-07T09:46:35;14.00;;;9.43;;
25780;SDS011;13626;48.128;11.628;2022-12-07T09:49:03;15.23;;;8.57;;
25780;SDS011;13626;48.128;11.628;2022-12-07T09:51:31;14.02;;;8.70;;
25780;SDS011;13626;48.128;11.628;2022-12-07T09:53:58;12.68;;;8.57;;
25780;SDS011;13626;48.128;11.628;2022-12-07T09:56:28;11.48;;;8.45;;
25780;SDS011;13626;48.128;11.628;2022-12-07T09:59:00;12.43;;;8.68;;
25780;SDS011;13626;48.128;11.628;2022-12-07T10:01:29;12.30;;;8.10;;
25780;SDS011;13626;48.128;11.628;2022-12-07T10:04:05;10.85;;;7.75;;
25780;SDS011;13626;48.128;11.628;2022-12-07T10:06:33;11.85;;;8.30;;
25780;SDS011;13626;48.128;11.628;2022-12-07T10:09:00;13.57;;;8.10;;
25780;SDS011;13626;48.128;11.628;2022-12-07T10:11:28;12.75;;;8.13;;
25780;SDS011;13626;48.128;11.628;2022-12-07T10:13:55;12.45;;;8.20;;
25780;SDS011;13626;48.128;11.628;2022-12-07T10:16:37;13.40;;;8.45;;
25780;SDS011;13626;48.128;11.628;2022-12-07T10:19:17;11.45;;;7.75;;
25780;SDS011;13626;48.128;11.628;2022-12-07T10:24:27;13.45;;;8.30;;
25780;SDS011;13626;48.128;11.628;2022-12-07T10:26:54;11.45;;;7.75;;
25780;SDS011;13626;48.128;11.628;2022-12-07T10:31:59;12.07;;;7.47;;
25780;SDS011;13626;48.128;11.628;2022-12-07T10:34:28;12.15;;;7.32;;
25780;SDS011;13626;48.128;11.628;2022-12-07T10:42:26;11.15;;;6.60;;
25780;SDS011;13626;48.128;11.628;2022-12-07T10:45:07;10.77;;;6.80;;
25780;SDS011;13626;48.128;11.628;2022-12-07T10:50:10;8.65;;;6.40;;
25780;SDS011;13626;48.128;11.628;2022-12-07T10:57:55;9.18;;;6.13;;
25780;SDS011;13626;48.128;11.628;2022-12-07T11:00:29;8.93;;;6.28;;
25780;SDS011;13626;48.128;11.628;2022-12-07T11:08:22;7.25;;;5.35;;
25780;SDS011;13626;48.128;11.628;2022-12-07T11:16:19;11.05;;;6.20;;
25780;SDS011;13626;48.128;11.628;2022-12-07T11:21:31;7.78;;;5.13;;
25780;SDS011;13626;48.128;11.628;2022-12-07T11:24:16;7.70;;;5.45;;
25780;SDS011;13626;48.128;11.628;2022-12-07T11:37:13;8.63;;;5.30;;
25780;SDS011;13626;48.128;11.628;2022-12-07T11:39:52;6.32;;;4.75;;
25780;SDS011;13626;48.128;11.628;2022-12-07T11:42:22;8.18;;;4.90;;
25780;SDS011;13626;48.128;11.628;2022-12-07T11:49:56;6.70;;;4.53;;
25780;SDS011;13626;48.128;11.628;2022-12-07T11:52:27;9.57;;;4.65;;
25780;SDS011;13626;48.128;11.628;2022-12-07T11:54:57;7.72;;;5.40;;
25780;SDS011;13626;48.128;11.628;2022-12-07T11:57:28;8.45;;;4.97;;
25780;SDS011;13626;48.128;11.628;2022-12-07T12:00:04;9.10;;;5.05;;
25780;SDS011;13626;48.128;11.628;2022-12-07T12:02:33;7.30;;;5.05;;
25780;SDS011;13626;48.128;11.628;2022-12-07T12:07:40;7.35;;;5.00;;
25780;SDS011;13626;48.128;11.628;2022-12-07T12:13:14;6.60;;;4.72;;
25780;SDS011;13626;48.128;11.628;2022-12-07T12:21:37;7.90;;;4.15;;
25780;SDS011;13626;48.128;11.628;2022-12-07T12:24:09;7.95;;;4.78;;
25780;SDS011;13626;48.128;11.628;2022-12-07T12:26:41;7.90;;;5.20;;
25780;SDS011;13626;48.128;11.628;2022-12-07T12:29:19;6.38;;;4.25;;
25780;SDS011;13626;48.128;11.628;2022-12-07T12:32:05;6.90;;;5.00;;
25780;SDS011;13626;48.128;11.628;2022-12-07T12:37:00;9.15;;;5.10;;
25780;SDS011;13626;48.128;11.628;2022-12-07T12:39:27;7.40;;;5.05;;
25780;SDS011;13626;48.128;11.628;2022-12-07T12:41:55;7.55;;;5.07;;
25780;SDS011;13626;48.128;11.628;2022-12-07T13:01:44;8.50;;;5.90;;
25780;SDS011;13626;48.128;11.628;2022-12-07T13:07:09;8.40;;;6.07;;
25780;SDS011;13626;48.128;11.628;2022-12-07T13:09:37;8.68;;;5.60;;
25780;SDS011;13626;48.128;11.628;2022-12-07T13:12:13;9.77;;;5.97;;
25780;SDS011;13626;48.128;11.628;2022-12-07T13:14:41;8.90;;;6.00;;
25780;SDS011;13626;48.128;11.628;2022-12-07T13:17:10;8.65;;;5.65;;
25780;SDS011;13626;48.128;11.628;2022-12-07T13:25:07;9.65;;;5.97;;
25780;SDS011;13626;48.128;11.628;2022-12-07T13:27:40;9.05;;;6.15;;
25780;SDS011;13626;48.128;11.628;2022-12-07T13:30:18;11.90;;;7.20;;
25780;SDS011;13626;48.128;11.628;2022-12-07T13:32:53;10.98;;;6.25;;
25780;SDS011;13626;48.128;11.628;2022-12-07T13:35:27;11.45;;;5.97;;
25780;SDS011;13626;48.128;11.628;2022-12-07T13:37:55;9.10;;;5.95;;
25780;SDS011;13626;48.128;11.628;2022-12-07T13:40:22;9.98;;;6.47;;
25780;SDS011;13626;48.128;11.628;2022-12-07T13:43:03;10.75;;;7.22;;
25780;SDS011;13626;48.128;11.628;2022-12-07T13:45:31;9.80;;;6.70;;
25780;SDS011;13626;48.128;11.628;2022-12-07T13:51:02;9.60;;;6.07;;
25780;SDS011;13626;48.128;11.628;2022-12-07T13:53:30;12.38;;;7.05;;
25780;SDS011;13626;48.128;11.628;2022-12-07T13:55:57;10.18;;;6.05;;
25780;SDS011;13626;48.128;11.628;2022-12-07T13:58:25;10.15;;;6.15;;
25780;SDS011;13626;48.128;11.628;2022-12-07T14:00:53;10.43;;;6.40;;
25780;SDS011;13626;48.128;11.628;2022-12-07T14:03:28;8.85;;;6.38;;
25780;SDS011;13626;48.128;11.628;2022-12-07T14:06:29;9.45;;;6.22;;
25780;SDS011;13626;48.128;11.628;2022-12-07T14:09:05;10.10;;;6.57;;
25780;SDS011;13626;48.128;11.628;2022-12-07T14:11:32;10.32;;;6.53;;
25780;SDS011;13626;48.128;11.628;2022-12-07T14:14:01;9.77;;;6.68;;
25780;SDS011;13626;48.128;11.628;2022-12-07T14:16:32;10.52;;;6.63;;
25780;SDS011;13626;48.128;11.628;2022-12-07T14:19:02;10.10;;;6.30;;
25780;SDS011;13626;48.128;11.628;2022-12-07T14:21:31;12.10;;;6.50;;
25780;SDS011;13626;48.128;11.628;2022-12-07T14:24:18;13.05;;;6.90;;
25780;SDS011;13626;48.128;11.628;2022-12-07T14:26:49;9.57;;;6.03;;
25780;SDS011;13626;48.128;11.628;2022-12-07T14:31:54;11.68;;;6.22;;
25780;SDS011;13626;48.128;11.628;2022-12-07T14:34:22;10.50;;;5.88;;
25780;SDS011;13626;48.128;11.628;2022-12-07T14:36:49;9.68;;;5.97;;
25780;SDS011;13626;48.128;11.628;2022-12-07T14:39:17;12.65;;;6.78;;
25780;SDS011;13626;48.128;11.628;2022-12-07T14:41:44;9.70;;;6.25;;
25780;SDS011;13626;48.128;11.628;2022-12-07T14:44:18;10.20;;;6.50;;
25780;SDS011;13626;48.128;11.628;2022-12-07T14:46:49;9.88;;;6.15;;
25780;SDS011;13626;48.128;11.628;2022-12-07T14:49:37;9.55;;;6.22;;
25780;SDS011;13626;48.128;11.628;2022-12-07T14:52:04;13.77;;;6.63;;
25780;SDS011;13626;48.128;11.628;2022-12-07T14:54:51;11.75;;;6.80;;
25780;SDS011;13626;48.128;11.628;2022-12-07T14:57:19;9.68;;;6.53;;
25780;SDS011;13626;48.128;11.628;2022-12-07T14:59:46;9.85;;;6.03;;
25780;SDS011;13626;48.128;11.628;2022-12-07T15:02:14;11.60;;;6.40;;
25780;SDS011;13626;48.128;11.628;2022-12-07T15:04:41;12.02;;;7.00;;
25780;SDS011;13626;48.128;11.628;2022-12-07T15:07:10;10.13;;;6.82;;
25780;SDS011;13626;48.128;11.628;2022-12-07T15:09:40;11.23;;;7.05;;
25780;SDS011;13626;48.128;11.628;2022-12-07T15:12:07;10.32;;;6.32;;
25780;SDS011;13626;48.128;11.628;2022-12-07T15:14:34;16.30;;;7.40;;
25780;SDS011;13626;48.128;11.628;2022-12-07T15:17:02;10.18;;;6.35;;
25780;SDS011;13626;48.128;11.628;2022-12-07T15:19:35;11.57;;;6.80;;
25780;SDS011;13626;48.128;11.628;2022-12-07T15:22:03;10.40;;;6.47;;
25780;SDS011;13626;48.128;11.628;2022-12-07T15:24:30;11.48;;;6.55;;
25780;SDS011;13626;48.128;11.628;2022-12-07T15:26:58;10.23;;;6.60;;
25780;SDS011;13626;48.128;11.628;2022-12-07T15:29:25;11.75;;;7.20;;
25780;SDS011;13626;48.128;11.628;2022-12-07T15:31:53;11.52;;;6.80;;
25780;SDS011;13626;48.128;11.628;2022-12-07T15:34:24;12.13;;;6.63;;
25780;SDS011;13626;48.128;11.628;2022-12-07T15:36:51;13.07;;;7.82;;
25780;SDS011;13626;48.128;11.628;2022-12-07T15:39:18;13.35;;;8.10;;
25780;SDS011;13626;48.128;11.628;2022-12-07T15:41:45;14.18;;;7.25;;
25780;SDS011;13626;48.128;11.628;2022-12-07T15:44:13;10.95;;;7.25;;
25780;SDS011;13626;48.128;11.628;2022-12-07T15:46:59;12.38;;;7.65;;
25780;SDS011;13626;48.128;11.628;2022-12-07T15:49:26;14.88;;;7.10;;
25780;SDS011;13626;48.128;11.628;2022-12-07T15:51:54;12.13;;;7.15;;
25780;SDS011;13626;48.128;11.628;2022-12-07T15:54:25;13.02;;;7.57;;
25780;SDS011;13626;48.128;11.628;2022-12-07T15:56:53;12.57;;;7.75;;
25780;SDS011;13626;48.128;11.628;2022-12-07T15:59:21;13.63;;;7.57;;
25780;SDS011;13626;48.128;11.628;2022-12-07T16:01:48;12.00;;;7.28;;
25780;SDS011;13626;48.128;11.628;2022-12-07T16:04:15;12.43;;;7.53;;
25780;SDS011;13626;48.128;11.628;2022-12-07T16:06:43;14.02;;;8.20;;
25780;SDS011;13626;48.128;11.628;2022-12-07T16:09:10;12.48;;;7.75;;
25780;SDS011;13626;48.128;11.628;2022-12-07T16:11:37;12.50;;;7.95;;
25780;SDS011;13626;48.128;11.628;2022-12-07T16:14:05;12.50;;;7.53;;
25780;SDS011;13626;48.128;11.628;2022-12-07T16:16:32;15.82;;;7.80;;
25780;SDS011;13626;48.128;11.628;2022-12-07T16:18:59;12.27;;;7.78;;
25780;SDS011;13626;48.128;11.628;2022-12-07T16:21:26;12.23;;;7.47;;
25780;SDS011;13626;48.128;11.628;2022-12-07T16:23:53;14.15;;;7.70;;
25780;SDS011;13626;48.128;11.628;2022-12-07T16:26:21;13.43;;;7.55;;
25780;SDS011;13626;48.128;11.628;2022-12-07T16:28:49;13.40;;;8.02;;
25780;SDS011;13626;48.128;11.628;2022-12-07T16:31:17;13.23;;;7.80;;
25780;SDS011;13626;48.128;11.628;2022-12-07T16:33:45;18.08;;;8.70;;
25780;SDS011;13626;48.128;11.628;2022-12-07T16:36:13;14.68;;;8.02;;
25780;SDS011;13626;48.128;11.628;2022-12-07T16:39:02;14.93;;;8.10;;
25780;SDS011;13626;48.128;11.628;2022-12-07T16:41:30;12.55;;;7.72;;
25780;SDS011;13626;48.128;11.628;2022-12-07T16:43:57;12.93;;;8.15;;
25780;SDS011;13626;48.128;11.628;2022-12-07T16:46:28;15.73;;;9.23;;
25780;SDS011;13626;48.128;11.628;2022-12-07T16:48:56;16.13;;;10.13;;